This is the latest recevied weather packets stored in our database for station/object K1ABC. If no packets are shown the sender has not sent any weather packets the latest 10 day(s).
| Time | Temp. | Humidity | Pressure | Rain* | Wind** | Luminosity | Snow |
|---|---|---|---|---|---|---|---|
| 1778003514 | 28.89° C | 36% | 1005.6 hPa | 0 mm | - | - | - |
| 1778002070 | 28.33° C | 37% | 1006 hPa | 0 mm | - | - | - |
| 1778001747 | 27.78° C | 37% | 1006.2 hPa | 0 mm | - | - | - |
| 1778001427 | 27.78° C | 37% | 1006.3 hPa | 0 mm | - | - | - |
| 1778000731 | 27.78° C | 37% | 1006.6 hPa | 0 mm | - | - | - |
| 1777997665 | 26.11° C | 42% | 1007.6 hPa | 0 mm | - | - | - |
| 1777997101 | 25.56° C | 42% | 1007.9 hPa | 0 mm | - | - | - |
| 1777996646 | 25.56° C | 44% | 1007.9 hPa | 0 mm | - | - | - |
| 1777996314 | 25° C | 43% | 1008 hPa | 0 mm | - | - | - |
| 1777995993 | 25° C | 45% | 1008.1 hPa | 0 mm | - | - | - |
| 1777995789 | 25° C | 44% | 1008.1 hPa | 0 mm | - | - | - |
| 1777995462 | 24.44° C | 44% | 1008 hPa | 0 mm | - | - | - |
| 1777994635 | 23.89° C | 47% | 1008.3 hPa | 0 mm | - | - | - |
| 1777994432 | 23.89° C | 46% | 1008.3 hPa | 0 mm | - | - | - |
| 1777993111 | 23.33° C | 50% | 1008.5 hPa | 0 mm | - | - | - |
| 1777992152 | 22.78° C | 50% | 1008.5 hPa | 0 mm | - | - | - |
| 1777991329 | 21.67° C | 51% | 1008.5 hPa | 0 mm | - | - | - |
| 1777990508 | 21.11° C | 53% | 1008.6 hPa | 0 mm | - | - | - |
| 1777989605 | 20.56° C | 53% | 1008.5 hPa | 0 mm | - | - | - |
| 1777989162 | 20.56° C | 54% | 1008.5 hPa | 0 mm | - | - | - |
| 1777986810 | 20° C | 55% | 1008.6 hPa | 0 mm | - | - | - |
| 1777986239 | 19.44° C | 56% | 1008.6 hPa | 0 mm | - | - | - |
| 1777985789 | 18.89° C | 57% | 1008.6 hPa | 0 mm | - | - | - |
| 1777985470 | 18.89° C | 57% | 1008.8 hPa | 0 mm | - | - | - |
| 1777983667 | 18.33° C | 59% | 1008.8 hPa | 0 mm | - | - | - |
* Rain latest hour (hover to see other rain measurements)
** Current wind speed in m/s (hover to see current wind gust speed)